createdAt,value
2018-04-26T00:01:41.513Z,52.70
2018-04-26T00:04:07.469Z,51.95
2018-04-26T00:06:33.419Z,51.80
2018-04-26T00:08:59.347Z,51.96
2018-04-26T00:11:25.295Z,51.64
2018-04-26T00:13:51.256Z,51.48
2018-04-26T00:16:17.235Z,51.53
2018-04-26T00:18:43.184Z,52.19
2018-04-26T00:21:09.139Z,51.92
2018-04-26T00:23:35.088Z,51.56
2018-04-26T00:26:01.040Z,51.65
2018-04-26T00:28:26.992Z,51.63
2018-04-26T00:30:52.961Z,52.13
2018-04-26T00:33:18.907Z,51.59
2018-04-26T00:35:44.865Z,52.30
2018-04-26T00:38:10.807Z,52.20
2018-04-26T00:40:36.753Z,51.83
2018-04-26T00:43:02.724Z,51.99
2018-04-26T00:45:28.664Z,51.86
2018-04-26T00:47:54.678Z,52.43
2018-04-26T00:50:20.612Z,51.86
2018-04-26T00:52:46.579Z,51.59
2018-04-26T00:55:12.518Z,52.09
2018-04-26T00:57:38.651Z,51.58
2018-04-26T01:00:04.609Z,51.67
2018-04-26T01:02:30.536Z,52.04
2018-04-26T01:04:56.537Z,52.00
2018-04-26T01:07:22.480Z,51.76
2018-04-26T01:09:48.440Z,51.54
2018-04-26T01:12:14.383Z,52.49
2018-04-26T01:14:40.336Z,51.64
2018-04-26T01:17:06.287Z,52.56
2018-04-26T01:19:32.236Z,52.26
2018-04-26T01:21:58.196Z,51.86
2018-04-26T01:24:24.144Z,51.67
2018-04-26T01:26:50.180Z,51.79
2018-04-26T01:29:16.120Z,51.75
2018-04-26T01:31:42.064Z,52.21
2018-04-26T01:34:08.008Z,52.80
2018-04-26T01:36:33.940Z,51.81
2018-04-26T01:38:59.920Z,51.87
2018-04-26T01:41:25.976Z,51.59
2018-04-26T01:43:51.935Z,51.78
2018-04-26T01:46:17.893Z,52.23
2018-04-26T01:48:43.847Z,52.07
2018-04-26T01:51:09.780Z,52.00
2018-04-26T01:53:35.715Z,51.66
2018-04-26T01:56:01.676Z,52.31
2018-04-26T01:58:27.620Z,52.01
2018-04-26T02:00:53.581Z,51.78
2018-04-26T02:03:19.523Z,52.56
2018-04-26T02:05:45.491Z,52.54
2018-04-26T02:08:11.440Z,52.28
2018-04-26T02:10:37.386Z,52.47
2018-04-26T02:13:03.328Z,52.28
2018-04-26T02:15:29.276Z,52.19
2018-04-26T02:17:55.212Z,52.07
2018-04-26T02:20:21.157Z,51.93
2018-04-26T02:22:47.112Z,52.36
2018-04-26T02:25:13.054Z,52.54
2018-04-26T02:27:39.007Z,52.22
2018-04-26T02:30:04.969Z,51.78
2018-04-26T02:32:30.925Z,52.37
2018-04-26T02:34:56.916Z,51.92
2018-04-26T02:37:22.861Z,52.13
2018-04-26T02:39:48.824Z,52.01
2018-04-26T02:42:14.764Z,52.12
2018-04-26T02:44:40.725Z,52.08
2018-04-26T02:47:06.683Z,51.82
2018-04-26T02:49:32.636Z,52.09
2018-04-26T02:51:58.583Z,51.90
2018-04-26T02:54:24.548Z,52.58
2018-04-26T02:56:50.496Z,52.07
2018-04-26T02:59:16.439Z,52.08
2018-04-26T03:01:42.385Z,52.52
2018-04-26T03:04:08.331Z,52.17
2018-04-26T03:06:34.295Z,52.15
2018-04-26T03:09:00.241Z,52.78
2018-04-26T03:11:26.313Z,52.15
2018-04-26T03:13:52.271Z,52.61
2018-04-26T03:16:18.215Z,52.51
2018-04-26T03:18:44.169Z,52.63
2018-04-26T03:21:10.108Z,52.09
2018-04-26T03:23:36.046Z,52.63
2018-04-26T03:26:01.984Z,52.40
2018-04-26T03:28:27.947Z,52.05
2018-04-26T03:30:53.924Z,51.97
2018-04-26T03:33:19.855Z,52.20
2018-04-26T03:35:45.800Z,52.63
2018-04-26T03:38:11.747Z,52.45
2018-04-26T03:40:37.716Z,52.00
2018-04-26T03:43:03.661Z,52.06
2018-04-26T03:45:29.647Z,53.13
2018-04-26T03:47:55.587Z,52.05
2018-04-26T03:50:21.600Z,52.21
2018-04-26T03:52:47.584Z,52.04
2018-04-26T03:55:13.531Z,52.77
2018-04-26T03:57:39.481Z,52.45
2018-04-26T04:00:05.529Z,52.78
2018-04-26T04:02:31.484Z,52.20
2018-04-26T04:04:57.425Z,52.42
2018-04-26T04:07:23.380Z,51.91
2018-04-26T04:09:49.321Z,51.81
2018-04-26T04:12:15.255Z,51.90
2018-04-26T04:14:41.220Z,52.07
2018-04-26T04:17:07.192Z,52.27
2018-04-26T04:19:33.132Z,52.15
2018-04-26T04:21:59.099Z,52.25
2018-04-26T04:24:25.067Z,52.63
2018-04-26T04:26:51.021Z,52.29
2018-04-26T04:29:17.000Z,52.11
2018-04-26T04:31:42.955Z,52.87
2018-04-26T04:34:08.896Z,52.71
2018-04-26T04:36:34.898Z,52.33
2018-04-26T04:39:00.839Z,52.03
2018-04-26T04:41:26.808Z,52.25
2018-04-26T04:43:52.755Z,52.58
2018-04-26T04:46:18.699Z,52.57
2018-04-26T04:48:44.660Z,52.87
2018-04-26T04:51:10.599Z,52.15
2018-04-26T04:53:36.563Z,52.37
2018-04-26T04:56:02.508Z,52.23
2018-04-26T04:58:28.471Z,52.52
2018-04-26T05:00:54.424Z,52.61
2018-04-26T05:03:21.444Z,52.79
2018-04-26T05:05:47.392Z,52.40
2018-04-26T05:08:13.324Z,53.09
2018-04-26T05:10:39.280Z,52.20
2018-04-26T05:13:05.238Z,52.74
2018-04-26T05:15:31.172Z,52.64
2018-04-26T05:17:57.127Z,52.93
2018-04-26T05:20:23.169Z,52.77
2018-04-26T05:22:49.109Z,53.40
2018-04-26T05:25:15.068Z,53.35
2018-04-26T05:27:41.003Z,52.66
2018-04-26T05:30:07.013Z,52.64
2018-04-26T05:32:32.932Z,52.65
2018-04-26T05:34:58.871Z,53.23
2018-04-26T05:37:24.832Z,52.56
2018-04-26T05:39:50.791Z,52.64
2018-04-26T05:42:16.744Z,53.12
2018-04-26T05:44:42.716Z,52.48
2018-04-26T05:47:08.661Z,52.58
2018-04-26T05:49:34.605Z,52.34
2018-04-26T05:52:00.568Z,52.40
2018-04-26T05:54:26.580Z,52.33
2018-04-26T05:56:52.544Z,52.88
2018-04-26T05:59:18.487Z,52.53
2018-04-26T06:01:44.524Z,52.84
2018-04-26T06:04:10.465Z,52.37
2018-04-26T06:06:36.424Z,52.43
2018-04-26T06:09:02.379Z,52.54
2018-04-26T06:11:28.320Z,52.82
2018-04-26T06:13:54.268Z,52.22
2018-04-26T06:16:20.224Z,52.59
2018-04-26T06:18:46.188Z,52.30
2018-04-26T06:21:12.144Z,52.17
2018-04-26T06:23:38.084Z,52.57
2018-04-26T06:26:04.041Z,52.40
2018-04-26T06:28:29.990Z,50.59
2018-04-26T06:30:56.028Z,49.36
2018-04-26T06:33:22.059Z,49.97
2018-04-26T06:35:48.035Z,49.93
2018-04-26T06:38:14.032Z,50.51
2018-04-26T06:40:40.017Z,50.78
2018-04-26T06:43:05.952Z,51.02
2018-04-26T06:45:32.004Z,50.99
2018-04-26T06:47:57.966Z,50.94
2018-04-26T06:50:23.977Z,52.04
2018-04-26T06:52:49.931Z,51.66
2018-04-26T06:55:15.892Z,51.82
2018-04-26T06:57:41.883Z,52.41
2018-04-26T07:00:07.824Z,51.38
2018-04-26T07:02:33.760Z,51.89
2018-04-26T07:04:59.722Z,51.32
2018-04-26T07:07:25.674Z,51.79
2018-04-26T07:09:51.629Z,52.31
2018-04-26T07:12:17.611Z,53.02
2018-04-26T07:14:43.547Z,51.76
2018-04-26T07:17:09.493Z,52.81
2018-04-26T07:19:35.438Z,53.10
2018-04-26T07:22:01.426Z,52.10
2018-04-26T07:24:27.364Z,51.45
2018-04-26T07:26:53.310Z,52.01
2018-04-26T07:29:19.248Z,51.38
2018-04-26T07:31:45.195Z,51.41
2018-04-26T07:34:11.157Z,51.90
2018-04-26T07:36:37.125Z,51.20
2018-04-26T07:39:03.080Z,51.09
2018-04-26T07:41:29.165Z,51.14
2018-04-26T07:43:55.148Z,53.95
2018-04-26T07:46:21.089Z,51.67
2018-04-26T07:48:47.056Z,52.29
2018-04-26T07:51:13.020Z,51.45
2018-04-26T07:53:38.980Z,51.33
2018-04-26T07:56:04.951Z,51.45
2018-04-26T07:58:30.908Z,51.40
2018-04-26T08:00:56.860Z,51.58
2018-04-26T08:03:22.812Z,51.63
2018-04-26T08:05:48.765Z,52.04
2018-04-26T08:08:14.760Z,51.24
2018-04-26T08:10:40.697Z,51.49
2018-04-26T08:13:06.647Z,51.23
2018-04-26T08:15:32.603Z,51.37
2018-04-26T08:17:58.552Z,52.19
2018-04-26T08:20:24.488Z,51.34
2018-04-26T08:22:50.508Z,51.51
2018-04-26T08:25:16.455Z,51.57
2018-04-26T08:27:42.425Z,51.99
2018-04-26T08:30:08.368Z,51.38
2018-04-26T08:32:34.318Z,51.54
2018-04-26T08:35:00.259Z,52.26
2018-04-26T08:37:26.208Z,52.66
2018-04-26T08:39:52.156Z,52.07
2018-04-26T08:42:18.097Z,51.14
2018-04-26T08:44:44.055Z,50.88
2018-04-26T08:47:09.999Z,51.05
2018-04-26T08:49:36.014Z,51.29
2018-04-26T08:52:01.967Z,51.10
2018-04-26T08:54:27.992Z,51.32
2018-04-26T08:56:53.942Z,53.80
2018-04-26T08:59:19.941Z,52.19
2018-04-26T09:01:45.898Z,51.65
2018-04-26T09:04:11.859Z,51.34
2018-04-26T09:06:37.839Z,50.94
2018-04-26T09:09:03.761Z,51.33
2018-04-26T09:11:29.703Z,51.43
2018-04-26T09:13:55.781Z,51.61
2018-04-26T09:16:21.724Z,51.53
2018-04-26T09:18:47.676Z,51.78
2018-04-26T09:21:13.612Z,51.41
2018-04-26T09:23:39.547Z,51.60
2018-04-26T09:26:05.509Z,51.79
2018-04-26T09:28:31.541Z,51.89
2018-04-26T09:30:57.496Z,51.85
2018-04-26T09:33:23.449Z,51.48
2018-04-26T09:35:49.415Z,51.71
2018-04-26T09:38:15.404Z,51.89
2018-04-26T09:40:41.344Z,52.07
2018-04-26T09:43:07.360Z,51.94
2018-04-26T09:45:33.308Z,52.61
2018-04-26T09:47:59.273Z,51.27
2018-04-26T09:50:25.216Z,51.93
2018-04-26T09:52:51.186Z,51.58
2018-04-26T09:55:17.177Z,51.60
2018-04-26T09:57:43.124Z,51.66
2018-04-26T10:00:09.097Z,52.16
2018-04-26T10:02:35.065Z,52.25
2018-04-26T10:05:01.046Z,51.65
2018-04-26T10:07:26.988Z,51.52
2018-04-26T10:09:52.932Z,52.60
2018-04-26T10:12:18.884Z,51.90
2018-04-26T10:14:44.836Z,51.47
2018-04-26T10:17:10.783Z,51.84
2018-04-26T10:19:36.769Z,51.15
2018-04-26T10:22:02.715Z,51.86
2018-04-26T10:24:28.667Z,51.52
2018-04-26T10:26:54.616Z,51.69
2018-04-26T10:29:20.585Z,51.74
2018-04-26T10:31:46.524Z,51.85
2018-04-26T10:34:12.495Z,52.02
2018-04-26T10:36:38.427Z,51.83
2018-04-26T10:39:04.456Z,51.62
2018-04-26T10:41:30.416Z,52.26
2018-04-26T10:43:56.360Z,51.48
2018-04-26T10:46:22.318Z,51.48
2018-04-26T10:48:48.363Z,50.82
2018-04-26T10:51:14.308Z,51.56
2018-04-26T10:53:40.276Z,51.11
2018-04-26T10:56:06.228Z,51.75
2018-04-26T10:58:32.199Z,51.75
2018-04-26T11:00:58.136Z,52.06
2018-04-26T11:03:24.100Z,51.76
2018-04-26T11:05:50.045Z,51.46
2018-04-26T11:08:16.017Z,51.36
2018-04-26T11:10:42.003Z,51.73
2018-04-26T11:13:07.988Z,51.55
2018-04-26T11:15:33.933Z,52.09
2018-04-26T11:17:59.885Z,51.69
2018-04-26T11:20:25.847Z,52.62
2018-04-26T11:22:51.797Z,51.82
2018-04-26T11:25:17.745Z,52.53
2018-04-26T11:27:43.679Z,51.89
2018-04-26T11:30:09.628Z,50.23
2018-04-26T11:32:35.584Z,50.32
2018-04-26T11:35:01.568Z,50.76
2018-04-26T11:37:27.523Z,51.64
2018-04-26T11:39:53.552Z,51.40
2018-04-26T11:42:19.529Z,51.52
2018-04-26T11:44:45.504Z,51.13
2018-04-26T11:47:11.452Z,51.38
2018-04-26T11:49:37.409Z,51.08
2018-04-26T11:52:03.468Z,51.56
2018-04-26T11:54:29.407Z,51.83
2018-04-26T11:56:55.364Z,50.98
2018-04-26T11:59:21.329Z,51.34
2018-04-26T12:01:47.280Z,51.61
2018-04-26T12:04:13.232Z,51.25
2018-04-26T12:06:39.362Z,51.29
2018-04-26T12:09:05.317Z,51.46
2018-04-26T12:11:31.270Z,51.27
2018-04-26T12:13:57.232Z,50.97
2018-04-26T12:16:23.193Z,51.68
2018-04-26T12:18:49.153Z,50.88
2018-04-26T12:21:15.111Z,50.72
2018-04-26T12:23:41.043Z,50.95
2018-04-26T12:26:06.981Z,50.43
2018-04-26T12:28:32.923Z,50.89
2018-04-26T12:30:58.882Z,51.23
2018-04-26T12:33:24.832Z,50.69
2018-04-26T12:35:50.863Z,51.49
2018-04-26T12:38:16.876Z,50.83
2018-04-26T12:40:42.839Z,51.35
2018-04-26T12:43:08.796Z,50.53
2018-04-26T12:45:34.757Z,50.54
2018-04-26T12:48:00.692Z,50.67
2018-04-26T12:50:26.648Z,50.66
2018-04-26T12:52:52.617Z,50.75
2018-04-26T12:55:18.568Z,50.95
2018-04-26T12:57:44.612Z,50.42
2018-04-26T13:00:10.570Z,50.90
2018-04-26T13:02:36.511Z,50.74
2018-04-26T13:05:02.516Z,50.39
2018-04-26T13:07:28.383Z,50.18
2018-04-26T13:09:54.340Z,50.09
2018-04-26T13:12:20.292Z,48.46
2018-04-26T13:14:46.326Z,47.76
2018-04-26T13:17:12.326Z,47.30
2018-04-26T13:19:38.229Z,45.88
2018-04-26T13:22:04.197Z,45.23
2018-04-26T13:24:30.174Z,44.03
2018-04-26T13:26:56.134Z,44.65
2018-04-26T13:29:22.085Z,44.78
2018-04-26T13:31:48.060Z,45.00
2018-04-26T13:34:14.043Z,43.99
2018-04-26T13:36:40.005Z,45.14
2018-04-26T13:39:05.972Z,43.88
2018-04-26T13:41:31.938Z,43.72
2018-04-26T13:43:57.878Z,43.85
2018-04-26T13:46:23.843Z,42.81
2018-04-26T13:48:49.785Z,42.94
2018-04-26T13:51:15.724Z,43.62
2018-04-26T13:53:41.687Z,43.17
2018-04-26T13:56:07.697Z,42.99
2018-04-26T13:58:33.657Z,43.38
2018-04-26T14:00:59.613Z,42.86
2018-04-26T14:03:25.552Z,42.74
2018-04-26T14:05:51.496Z,43.12
2018-04-26T14:08:17.555Z,42.41
2018-04-26T14:10:43.504Z,42.64
2018-04-26T14:13:09.463Z,42.94
2018-04-26T14:15:35.412Z,42.10
2018-04-26T14:18:01.362Z,42.45
2018-04-26T14:20:27.313Z,42.04
2018-04-26T14:22:53.308Z,43.61
2018-04-26T14:25:19.277Z,42.49
2018-04-26T14:27:45.228Z,45.23
2018-04-26T14:30:11.200Z,43.38
2018-04-26T14:32:37.140Z,45.83
2018-04-26T14:35:03.110Z,46.10
2018-04-26T14:37:29.130Z,44.82
2018-04-26T14:39:55.008Z,46.49
2018-04-26T14:42:20.974Z,46.08
2018-04-26T14:44:46.925Z,46.73
2018-04-26T14:47:12.885Z,46.29
2018-04-26T14:49:38.873Z,46.83
2018-04-26T14:52:04.788Z,47.41
2018-04-26T14:54:30.720Z,48.47
2018-04-26T14:56:56.731Z,48.57
2018-04-26T14:59:22.657Z,47.42
2018-04-26T15:01:48.600Z,48.31
2018-04-26T15:04:14.547Z,48.57
2018-04-26T15:06:40.480Z,48.40
2018-04-26T15:09:06.439Z,48.92
2018-04-26T15:11:32.405Z,48.42
2018-04-26T15:13:58.364Z,48.61
2018-04-26T15:16:24.310Z,49.50
2018-04-26T15:18:50.244Z,48.25
2018-04-26T15:21:16.249Z,48.73
2018-04-26T15:23:42.213Z,49.12
2018-04-26T15:26:08.158Z,51.80
2018-04-26T15:28:34.107Z,49.08
2018-04-26T15:31:00.057Z,49.39
2018-04-26T15:33:26.000Z,48.89
2018-04-26T15:35:51.948Z,49.08
2018-04-26T15:38:17.900Z,49.53
2018-04-26T15:40:43.845Z,50.46
2018-04-26T15:43:09.799Z,49.87
2018-04-26T15:45:35.768Z,50.15
2018-04-26T15:48:01.741Z,50.57
2018-04-26T15:50:27.707Z,50.97
2018-04-26T15:52:53.675Z,50.49
2018-04-26T15:55:19.652Z,50.67
2018-04-26T15:57:45.610Z,50.82
2018-04-26T16:00:11.564Z,50.78
2018-04-26T16:02:37.509Z,51.31
2018-04-26T16:05:03.470Z,51.04
2018-04-26T16:07:29.412Z,51.50
2018-04-26T16:09:55.394Z,51.10
2018-04-26T16:12:21.332Z,51.16
2018-04-26T16:14:47.296Z,51.25
2018-04-26T16:17:13.249Z,51.34
2018-04-26T16:19:39.242Z,51.46
2018-04-26T16:22:05.205Z,51.50
2018-04-26T16:24:31.172Z,51.46
2018-04-26T16:26:57.114Z,52.01
2018-04-26T16:29:23.051Z,52.92
2018-04-26T16:31:49.002Z,51.85
2018-04-26T16:34:14.936Z,52.36
2018-04-26T16:36:40.913Z,52.24
2018-04-26T16:39:06.876Z,52.34
2018-04-26T16:41:32.807Z,52.38
2018-04-26T16:43:58.775Z,52.55
2018-04-26T16:46:24.729Z,52.43
2018-04-26T16:48:50.673Z,52.12
2018-04-26T16:51:16.615Z,52.54
2018-04-26T16:53:42.576Z,52.59
2018-04-26T16:56:08.518Z,53.24
2018-04-26T16:58:34.466Z,52.82
2018-04-26T17:01:00.429Z,52.80
2018-04-26T17:03:26.393Z,52.73
2018-04-26T17:05:52.329Z,52.88
2018-04-26T17:08:18.282Z,53.70
2018-04-26T17:10:44.228Z,53.25
2018-04-26T17:13:10.168Z,53.69
2018-04-26T17:15:36.143Z,54.76
2018-04-26T17:18:02.092Z,53.69
2018-04-26T17:20:28.040Z,53.27
2018-04-26T17:22:53.997Z,53.36
2018-04-26T17:25:19.981Z,53.74
2018-04-26T17:27:45.935Z,53.17
2018-04-26T17:30:11.873Z,53.26
2018-04-26T17:32:37.822Z,53.38
2018-04-26T17:35:03.789Z,53.71
2018-04-26T17:37:29.783Z,53.46
2018-04-26T17:39:55.730Z,53.66
2018-04-26T17:42:21.711Z,53.74
2018-04-26T17:44:47.644Z,53.24
2018-04-26T17:47:13.625Z,53.28
2018-04-26T17:49:39.631Z,53.32
2018-04-26T17:52:05.554Z,53.09
2018-04-26T17:54:31.491Z,53.21
2018-04-26T17:56:57.435Z,52.72
2018-04-26T17:59:23.399Z,52.94
2018-04-26T18:01:49.351Z,52.88
2018-04-26T18:04:15.304Z,53.25
2018-04-26T18:06:41.285Z,55.34
2018-04-26T18:09:07.237Z,53.19
2018-04-26T18:11:33.216Z,53.07
2018-04-26T18:13:59.194Z,52.74
2018-04-26T18:16:25.168Z,52.93
2018-04-26T18:18:51.175Z,53.26
2018-04-26T18:21:17.113Z,53.08
2018-04-26T18:23:43.072Z,53.42
2018-04-26T18:26:09.020Z,53.05
2018-04-26T18:28:35.034Z,53.20
2018-04-26T18:31:00.979Z,52.86
2018-04-26T18:33:26.915Z,53.40
2018-04-26T18:35:52.911Z,53.43
2018-04-26T18:38:18.839Z,53.51
2018-04-26T18:40:44.808Z,53.48
2018-04-26T18:43:10.772Z,53.32
2018-04-26T18:45:36.717Z,53.65
2018-04-26T18:48:02.697Z,53.47
2018-04-26T18:50:28.651Z,53.33
2018-04-26T18:52:54.596Z,54.22
2018-04-26T18:55:20.570Z,54.09
2018-04-26T18:57:46.520Z,53.76
2018-04-26T19:00:12.499Z,53.54
2018-04-26T19:02:38.471Z,53.64
2018-04-26T19:05:04.404Z,53.90
2018-04-26T19:07:30.364Z,53.39
2018-04-26T19:09:56.351Z,53.71
2018-04-26T19:12:22.305Z,53.80
2018-04-26T19:14:48.251Z,53.93
2018-04-26T19:17:14.209Z,54.13
2018-04-26T19:19:40.181Z,54.72
2018-04-26T19:22:06.144Z,53.84
2018-04-26T19:24:32.085Z,53.27
2018-04-26T19:26:58.063Z,53.69
2018-04-26T19:29:24.022Z,52.91
2018-04-26T19:31:49.976Z,52.58
2018-04-26T19:34:15.910Z,53.28
2018-04-26T19:36:41.859Z,52.80
2018-04-26T19:39:07.876Z,53.42
2018-04-26T19:41:33.825Z,53.43
2018-04-26T19:43:59.770Z,53.98
2018-04-26T19:46:25.750Z,53.84
2018-04-26T19:48:51.717Z,54.03
2018-04-26T19:51:17.671Z,53.79
2018-04-26T19:53:43.640Z,54.22
2018-04-26T19:56:09.586Z,54.06
2018-04-26T19:58:35.525Z,53.80
2018-04-26T20:01:01.625Z,53.81
2018-04-26T20:03:27.596Z,53.95
2018-04-26T20:05:53.569Z,53.61
2018-04-26T20:08:19.524Z,53.55
2018-04-26T20:10:45.473Z,53.90
2018-04-26T20:13:11.422Z,53.75
2018-04-26T20:15:37.379Z,54.62
2018-04-26T20:18:03.368Z,54.89
2018-04-26T20:20:29.312Z,54.02
2018-04-26T20:22:55.235Z,53.63
2018-04-26T20:25:21.325Z,54.29
2018-04-26T20:27:47.263Z,53.84
2018-04-26T20:30:13.360Z,53.96
2018-04-26T20:32:39.313Z,53.75
2018-04-26T20:35:05.264Z,54.01
2018-04-26T20:37:31.224Z,54.36
2018-04-26T20:39:57.270Z,53.98
2018-04-26T20:42:23.288Z,53.89
2018-04-26T20:44:49.230Z,53.92
2018-04-26T20:47:15.185Z,53.74
2018-04-26T20:49:41.145Z,53.91
2018-04-26T20:52:07.105Z,54.08
2018-04-26T20:54:33.064Z,54.37
2018-04-26T20:56:59.013Z,54.37
2018-04-26T20:59:24.948Z,54.55
2018-04-26T21:01:50.899Z,54.12
2018-04-26T21:04:16.829Z,53.77
2018-04-26T21:06:42.764Z,54.14
2018-04-26T21:09:08.723Z,54.09
2018-04-26T21:11:34.671Z,55.48
2018-04-26T21:14:00.639Z,54.41
2018-04-26T21:16:26.624Z,54.30
2018-04-26T21:18:52.576Z,54.24
2018-04-26T21:21:18.712Z,54.23
2018-04-26T21:23:44.760Z,54.12
2018-04-26T21:26:10.749Z,54.14
2018-04-26T21:28:36.765Z,54.00
2018-04-26T21:31:02.634Z,54.24
2018-04-26T21:33:28.592Z,54.23
2018-04-26T21:35:54.536Z,54.45
2018-04-26T21:38:20.477Z,54.11
2018-04-26T21:40:46.425Z,54.30
2018-04-26T21:43:12.375Z,54.30
2018-04-26T21:45:38.328Z,54.03
2018-04-26T21:48:04.328Z,53.96
2018-04-26T21:50:30.283Z,54.10
2018-04-26T21:52:56.247Z,53.93
2018-04-26T21:55:22.185Z,54.13
2018-04-26T21:57:48.131Z,53.86
2018-04-26T22:00:14.073Z,53.73
2018-04-26T22:02:40.024Z,54.11
2018-04-26T22:05:05.986Z,53.80
2018-04-26T22:07:31.940Z,54.38
2018-04-26T22:09:57.883Z,54.47
2018-04-26T22:12:23.847Z,54.20
2018-04-26T22:14:49.789Z,53.92
2018-04-26T22:17:15.750Z,54.17
2018-04-26T22:19:41.693Z,54.30
2018-04-26T22:22:07.663Z,54.47
2018-04-26T22:24:33.611Z,54.05
2018-04-26T22:26:59.563Z,54.14
2018-04-26T22:29:25.491Z,54.06
2018-04-26T22:31:51.449Z,54.26
2018-04-26T22:34:17.561Z,54.06
2018-04-26T22:36:43.496Z,54.22
2018-04-26T22:39:09.448Z,53.99
2018-04-26T22:41:35.413Z,54.33
2018-04-26T22:44:01.370Z,54.05
2018-04-26T22:46:27.337Z,53.97
2018-04-26T22:48:53.307Z,54.22
2018-04-26T22:51:19.239Z,53.74
2018-04-26T22:53:45.183Z,53.99
2018-04-26T22:56:11.247Z,53.97
2018-04-26T22:58:37.185Z,54.08
2018-04-26T23:01:03.145Z,54.11
2018-04-26T23:03:29.108Z,54.03
2018-04-26T23:05:55.090Z,53.70
2018-04-26T23:08:21.049Z,53.77
2018-04-26T23:10:47.123Z,54.01
2018-04-26T23:13:13.073Z,53.88
2018-04-26T23:15:39.012Z,54.28
2018-04-26T23:18:04.953Z,53.83
2018-04-26T23:20:30.902Z,54.25
2018-04-26T23:22:56.838Z,53.84
2018-04-26T23:25:22.788Z,54.59
2018-04-26T23:27:48.729Z,53.95
2018-04-26T23:30:14.695Z,54.27
2018-04-26T23:32:40.671Z,53.94
2018-04-26T23:35:06.616Z,53.83
2018-04-26T23:37:32.602Z,54.69
2018-04-26T23:39:58.536Z,54.33
2018-04-26T23:42:24.487Z,54.34
2018-04-26T23:44:50.440Z,54.34
2018-04-26T23:47:16.373Z,54.04
2018-04-26T23:49:42.308Z,53.94
2018-04-26T23:52:08.252Z,54.02
2018-04-26T23:54:34.239Z,54.60
2018-04-26T23:57:00.185Z,54.13
2018-04-26T23:59:26.145Z,54.11
